QFA14D EGHQ-EGJJ
Flight info
| Callsign | QFA14D |
|---|---|
| Flight time | 0h 47m |
| Altitude | 12000 |
| Route | BHD DCT SKERY |
| Aircraft | DH8D/M-SDE2E3FGRY/H |
Departure
| Time | 2026-05-05 20:01 |
|---|---|
| Airport | Cornwall Airport Newquay (EGHQ) |
Arrival
| Time | 2026-05-05 20:49 |
|---|---|
| Airport | Jersey Airport (EGJJ) |
| Time | Latitude | Longitude | Altitude | Speed | Heading |
|---|---|---|---|---|---|
| 2026-05-05 19:29 | 50.44651 | -5.00380 | 375 ft | 0 kts | 78° |
| 2026-05-05 19:48 | 50.44651 | -5.00379 | 376 ft | 0 kts | 78° |
| 2026-05-05 19:50 | 50.44651 | -5.00376 | 376 ft | 0 kts | 77° |
| 2026-05-05 19:51 | 50.44650 | -5.00384 | 376 ft | 2 kts | 77° |
| 2026-05-05 19:52 | 50.44647 | -5.00407 | 376 ft | 2 kts | 77° |
| 2026-05-05 19:52 | 50.44643 | -5.00430 | 376 ft | 2 kts | 77° |
| 2026-05-05 19:52 | 50.44640 | -5.00449 | 376 ft | 0 kts | 79° |
| 2026-05-05 19:52 | 50.44641 | -5.00459 | 376 ft | 1 kts | 121° |
| 2026-05-05 19:53 | 50.44642 | -5.00461 | 376 ft | 0 kts | 121° |
| 2026-05-05 19:56 | 50.44631 | -5.00433 | 376 ft | 9 kts | 123° |
| 2026-05-05 19:56 | 50.44567 | -5.00288 | 376 ft | 20 kts | 123° |
| 2026-05-05 19:56 | 50.44506 | -5.00128 | 376 ft | 17 kts | 120° |
| 2026-05-05 19:57 | 50.44424 | -4.99915 | 376 ft | 27 kts | 121° |
| 2026-05-05 19:57 | 50.44356 | -4.99733 | 376 ft | 27 kts | 121° |
| 2026-05-05 19:57 | 50.44235 | -4.99406 | 376 ft | 29 kts | 119° |
| 2026-05-05 19:57 | 50.44118 | -4.99095 | 376 ft | 37 kts | 120° |
| 2026-05-05 19:58 | 50.43997 | -4.98769 | 376 ft | 30 kts | 120° |
| 2026-05-05 19:58 | 50.43901 | -4.98527 | 376 ft | 21 kts | 120° |
| 2026-05-05 19:58 | 50.43831 | -4.98337 | 376 ft | 22 kts | 121° |
| 2026-05-05 19:58 | 50.43734 | -4.98079 | 376 ft | 31 kts | 119° |
| 2026-05-05 19:59 | 50.43610 | -4.97868 | 376 ft | 22 kts | 157° |
| 2026-05-05 19:59 | 50.43493 | -4.97867 | 376 ft | 11 kts | 232° |
| 2026-05-05 19:59 | 50.43489 | -4.97933 | 376 ft | 1 kts | 295° |
| 2026-05-05 19:59 | 50.43492 | -4.97941 | 376 ft | 0 kts | 295° |
| 2026-05-05 20:00 | 50.43574 | -4.98178 | 376 ft | 67 kts | 300° |
| 2026-05-05 20:00 | 50.43928 | -4.99153 | 376 ft | 135 kts | 299° |
| 2026-05-05 20:01 | 50.44455 | -5.00579 | 590 ft | 163 kts | 304° |
| 2026-05-05 20:01 | 50.45101 | -5.02181 | 928 ft | 188 kts | 306° |
| 2026-05-05 20:01 | 50.45953 | -5.03846 | 1300 ft | 201 kts | 327° |
| 2026-05-05 20:01 | 50.47286 | -5.04253 | 1697 ft | 207 kts | 13° |
| 2026-05-05 20:02 | 50.48415 | -5.02954 | 2126 ft | 207 kts | 57° |
| 2026-05-05 20:02 | 50.48667 | -5.00755 | 2537 ft | 210 kts | 89° |
| 2026-05-05 20:02 | 50.48546 | -4.98495 | 2966 ft | 208 kts | 91° |
| 2026-05-05 20:02 | 50.48415 | -4.96244 | 3379 ft | 206 kts | 91° |
| 2026-05-05 20:03 | 50.48287 | -4.94055 | 3739 ft | 200 kts | 91° |
| 2026-05-05 20:03 | 50.48164 | -4.91899 | 4054 ft | 197 kts | 91° |
| 2026-05-05 20:03 | 50.48044 | -4.89761 | 4340 ft | 195 kts | 91° |
| 2026-05-05 20:03 | 50.47928 | -4.87655 | 4604 ft | 194 kts | 91° |
| 2026-05-05 20:04 | 50.47815 | -4.85571 | 4862 ft | 194 kts | 91° |
| 2026-05-05 20:04 | 50.47699 | -4.83444 | 5111 ft | 194 kts | 91° |
| 2026-05-05 20:04 | 50.47586 | -4.81351 | 5350 ft | 194 kts | 91° |
| 2026-05-05 20:04 | 50.47473 | -4.79232 | 5586 ft | 194 kts | 91° |
| 2026-05-05 20:05 | 50.47360 | -4.77129 | 5822 ft | 198 kts | 91° |
| 2026-05-05 20:05 | 50.47239 | -4.74919 | 6119 ft | 207 kts | 92° |
| 2026-05-05 20:05 | 50.47115 | -4.72645 | 6463 ft | 212 kts | 92° |
| 2026-05-05 20:05 | 50.46989 | -4.70316 | 6836 ft | 216 kts | 92° |
| 2026-05-05 20:06 | 50.46860 | -4.67950 | 7228 ft | 218 kts | 92° |
| 2026-05-05 20:06 | 50.46732 | -4.65598 | 7618 ft | 221 kts | 92° |
| 2026-05-05 20:06 | 50.46599 | -4.63174 | 8028 ft | 223 kts | 92° |
| 2026-05-05 20:06 | 50.46466 | -4.60747 | 8439 ft | 224 kts | 92° |
| 2026-05-05 20:07 | 50.46333 | -4.58337 | 8843 ft | 225 kts | 92° |
| 2026-05-05 20:07 | 50.46198 | -4.55874 | 9259 ft | 228 kts | 92° |
| 2026-05-05 20:07 | 50.46060 | -4.53390 | 9678 ft | 230 kts | 92° |
| 2026-05-05 20:07 | 50.45921 | -4.50901 | 10097 ft | 230 kts | 92° |
| 2026-05-05 20:08 | 50.45783 | -4.48411 | 10516 ft | 231 kts | 92° |
| 2026-05-05 20:08 | 50.45641 | -4.45887 | 10930 ft | 232 kts | 92° |
| 2026-05-05 20:08 | 50.45501 | -4.43398 | 11336 ft | 233 kts | 92° |
| 2026-05-05 20:08 | 50.45357 | -4.40843 | 11729 ft | 236 kts | 92° |
| 2026-05-05 20:09 | 50.45210 | -4.38219 | 11897 ft | 249 kts | 92° |
| 2026-05-05 20:09 | 50.45054 | -4.35436 | 11955 ft | 265 kts | 92° |
| 2026-05-05 20:09 | 50.44887 | -4.32486 | 11975 ft | 279 kts | 94° |
| 2026-05-05 20:09 | 50.44710 | -4.29390 | 11978 ft | 292 kts | 94° |
| 2026-05-05 20:10 | 50.44525 | -4.26172 | 11976 ft | 301 kts | 94° |
| 2026-05-05 20:10 | 50.44333 | -4.22856 | 11980 ft | 308 kts | 94° |
| 2026-05-05 20:10 | 50.44138 | -4.19491 | 11974 ft | 314 kts | 94° |
| 2026-05-05 20:10 | 50.43936 | -4.16052 | 11973 ft | 319 kts | 94° |
| 2026-05-05 20:11 | 50.43731 | -4.12558 | 11969 ft | 322 kts | 94° |
| 2026-05-05 20:11 | 50.43524 | -4.09065 | 11965 ft | 325 kts | 94° |
| 2026-05-05 20:11 | 50.43314 | -4.05546 | 11964 ft | 326 kts | 94° |
| 2026-05-05 20:11 | 50.43102 | -4.01988 | 11961 ft | 328 kts | 94° |
| 2026-05-05 20:12 | 50.42890 | -3.98467 | 11959 ft | 329 kts | 94° |
| 2026-05-05 20:12 | 50.42673 | -3.94872 | 11957 ft | 330 kts | 94° |
| 2026-05-05 20:12 | 50.42457 | -3.91320 | 11955 ft | 330 kts | 94° |
| 2026-05-05 20:12 | 50.42238 | -3.87723 | 11957 ft | 331 kts | 94° |
| 2026-05-05 20:13 | 50.42017 | -3.84110 | 11958 ft | 331 kts | 94° |
| 2026-05-05 20:13 | 50.41797 | -3.80532 | 11960 ft | 331 kts | 94° |
| 2026-05-05 20:13 | 50.41576 | -3.76980 | 11965 ft | 332 kts | 94° |
| 2026-05-05 20:13 | 50.41352 | -3.73370 | 11957 ft | 332 kts | 94° |
| 2026-05-05 20:14 | 50.41130 | -3.69799 | 11952 ft | 324 kts | 94° |
| 2026-05-05 20:14 | 50.40915 | -3.66348 | 11950 ft | 317 kts | 94° |
| 2026-05-05 20:14 | 50.40700 | -3.62935 | 11949 ft | 312 kts | 94° |
| 2026-05-05 20:14 | 50.40489 | -3.59586 | 11956 ft | 308 kts | 94° |
| 2026-05-05 20:15 | 50.40278 | -3.56276 | 11951 ft | 305 kts | 93° |
| 2026-05-05 20:15 | 50.40056 | -3.52980 | 11950 ft | 303 kts | 95° |
| 2026-05-05 20:15 | 50.39331 | -3.49914 | 11934 ft | 304 kts | 123° |
| 2026-05-05 20:15 | 50.37754 | -3.47808 | 11969 ft | 303 kts | 148° |
| 2026-05-05 20:16 | 50.35904 | -3.46231 | 11958 ft | 302 kts | 151° |
| 2026-05-05 20:16 | 50.34041 | -3.44703 | 11954 ft | 302 kts | 151° |
| 2026-05-05 20:16 | 50.32186 | -3.43196 | 11950 ft | 302 kts | 151° |
| 2026-05-05 20:16 | 50.30323 | -3.41687 | 11950 ft | 301 kts | 151° |
| 2026-05-05 20:17 | 50.28456 | -3.40177 | 11953 ft | 306 kts | 151° |
| 2026-05-05 20:17 | 50.26549 | -3.38639 | 11953 ft | 314 kts | 151° |
| 2026-05-05 20:17 | 50.24598 | -3.37067 | 11958 ft | 320 kts | 151° |
| 2026-05-05 20:17 | 50.22592 | -3.35453 | 11956 ft | 325 kts | 151° |
| 2026-05-05 20:18 | 50.20584 | -3.33838 | 11954 ft | 329 kts | 152° |
| 2026-05-05 20:18 | 50.18543 | -3.32197 | 11948 ft | 331 kts | 152° |
| 2026-05-05 20:18 | 50.16500 | -3.30556 | 11955 ft | 333 kts | 152° |
| 2026-05-05 20:18 | 50.14413 | -3.28882 | 11951 ft | 334 kts | 152° |
| 2026-05-05 20:19 | 50.12359 | -3.27235 | 11937 ft | 335 kts | 152° |
| 2026-05-05 20:19 | 50.10271 | -3.25563 | 11943 ft | 336 kts | 152° |
| 2026-05-05 20:19 | 50.08203 | -3.23908 | 11948 ft | 337 kts | 152° |
| 2026-05-05 20:19 | 50.06120 | -3.22242 | 11945 ft | 337 kts | 152° |
| 2026-05-05 20:20 | 50.04038 | -3.20579 | 11944 ft | 338 kts | 152° |
| 2026-05-05 20:20 | 50.01948 | -3.18912 | 11945 ft | 337 kts | 152° |
| 2026-05-05 20:20 | 49.99895 | -3.17275 | 11940 ft | 331 kts | 152° |
| 2026-05-05 20:20 | 49.97820 | -3.15789 | 11938 ft | 327 kts | 156° |
| 2026-05-05 20:21 | 49.95710 | -3.14447 | 11940 ft | 323 kts | 157° |
| 2026-05-05 20:21 | 49.93647 | -3.13137 | 11940 ft | 320 kts | 156° |
| 2026-05-05 20:21 | 49.91584 | -3.11824 | 11942 ft | 318 kts | 156° |
| 2026-05-05 20:21 | 49.89550 | -3.10524 | 11937 ft | 316 kts | 156° |
| 2026-05-05 20:22 | 49.87517 | -3.09221 | 11936 ft | 315 kts | 156° |
| 2026-05-05 20:22 | 49.85511 | -3.07935 | 11939 ft | 313 kts | 156° |
| 2026-05-05 20:22 | 49.83500 | -3.06643 | 11939 ft | 313 kts | 156° |
| 2026-05-05 20:22 | 49.81482 | -3.05347 | 11942 ft | 312 kts | 156° |
| 2026-05-05 20:23 | 49.79488 | -3.04065 | 11939 ft | 310 kts | 156° |
| 2026-05-05 20:23 | 49.77520 | -3.02800 | 11932 ft | 302 kts | 156° |
| 2026-05-05 20:23 | 49.75628 | -3.01583 | 11932 ft | 295 kts | 156° |
| 2026-05-05 20:23 | 49.73743 | -3.00372 | 11932 ft | 289 kts | 156° |
| 2026-05-05 20:24 | 49.71912 | -2.99196 | 11933 ft | 284 kts | 155° |
| 2026-05-05 20:24 | 49.70113 | -2.98042 | 11931 ft | 277 kts | 155° |
| 2026-05-05 20:24 | 49.68351 | -2.96910 | 11929 ft | 269 kts | 155° |
| 2026-05-05 20:24 | 49.66665 | -2.95829 | 11931 ft | 261 kts | 155° |
| 2026-05-05 20:25 | 49.65014 | -2.94770 | 11932 ft | 254 kts | 155° |
| 2026-05-05 20:25 | 49.63401 | -2.93738 | 11930 ft | 247 kts | 155° |
| 2026-05-05 20:25 | 49.61840 | -2.92740 | 11921 ft | 240 kts | 155° |
| 2026-05-05 20:25 | 49.60307 | -2.91761 | 11918 ft | 233 kts | 155° |
| 2026-05-05 20:26 | 49.58818 | -2.90810 | 11822 ft | 231 kts | 155° |
| 2026-05-05 20:26 | 49.57354 | -2.89874 | 11691 ft | 228 kts | 155° |
| 2026-05-05 20:26 | 49.55900 | -2.88946 | 11553 ft | 225 kts | 155° |
| 2026-05-05 20:26 | 49.54460 | -2.88028 | 11422 ft | 222 kts | 155° |
| 2026-05-05 20:27 | 49.53061 | -2.87137 | 11293 ft | 219 kts | 155° |
| 2026-05-05 20:27 | 49.51656 | -2.86243 | 11160 ft | 216 kts | 155° |
| 2026-05-05 20:27 | 49.50285 | -2.85371 | 11007 ft | 214 kts | 155° |
| 2026-05-05 20:27 | 49.48906 | -2.84494 | 10800 ft | 216 kts | 155° |
| 2026-05-05 20:28 | 49.47510 | -2.83606 | 10577 ft | 218 kts | 155° |
| 2026-05-05 20:28 | 49.46105 | -2.82714 | 10366 ft | 220 kts | 155° |
| 2026-05-05 20:28 | 49.44691 | -2.81816 | 10150 ft | 223 kts | 155° |
| 2026-05-05 20:28 | 49.43233 | -2.80873 | 9922 ft | 226 kts | 152° |
| 2026-05-05 20:29 | 49.41847 | -2.79754 | 9704 ft | 228 kts | 147° |
| 2026-05-05 20:29 | 49.40470 | -2.78554 | 9486 ft | 231 kts | 147° |
| 2026-05-05 20:29 | 49.39066 | -2.77330 | 9279 ft | 234 kts | 147° |
| 2026-05-05 20:29 | 49.37647 | -2.76096 | 9051 ft | 236 kts | 147° |
| 2026-05-05 20:30 | 49.36224 | -2.74858 | 8696 ft | 236 kts | 147° |
| 2026-05-05 20:30 | 49.34786 | -2.73610 | 8321 ft | 238 kts | 147° |
| 2026-05-05 20:30 | 49.33333 | -2.72352 | 7952 ft | 240 kts | 147° |
| 2026-05-05 20:30 | 49.31891 | -2.71106 | 7597 ft | 242 kts | 147° |
| 2026-05-05 20:31 | 49.30420 | -2.69836 | 7218 ft | 243 kts | 147° |
| 2026-05-05 20:31 | 49.28949 | -2.68569 | 6839 ft | 245 kts | 147° |
| 2026-05-05 20:31 | 49.27473 | -2.67299 | 6465 ft | 246 kts | 147° |
| 2026-05-05 20:31 | 49.25982 | -2.66017 | 6085 ft | 247 kts | 147° |
| 2026-05-05 20:32 | 49.24472 | -2.64720 | 5708 ft | 248 kts | 147° |
| 2026-05-05 20:32 | 49.24148 | -2.64441 | 5627 ft | 248 kts | 147° |
| 2026-05-05 20:32 | 49.23057 | -2.63505 | 5354 ft | 248 kts | 147° |
| 2026-05-05 20:32 | 49.21553 | -2.62216 | 4981 ft | 249 kts | 147° |
| 2026-05-05 20:33 | 49.20048 | -2.60926 | 4606 ft | 249 kts | 147° |
| 2026-05-05 20:33 | 49.18538 | -2.59633 | 4231 ft | 249 kts | 147° |
| 2026-05-05 20:33 | 49.17032 | -2.58345 | 3852 ft | 249 kts | 147° |
| 2026-05-05 20:33 | 49.15541 | -2.57071 | 3563 ft | 245 kts | 147° |
| 2026-05-05 20:34 | 49.14073 | -2.55818 | 3302 ft | 240 kts | 147° |
| 2026-05-05 20:34 | 49.12618 | -2.54576 | 3042 ft | 236 kts | 147° |
| 2026-05-05 20:34 | 49.11213 | -2.53317 | 2782 ft | 230 kts | 140° |
| 2026-05-05 20:34 | 49.10336 | -2.51467 | 2505 ft | 213 kts | 99° |
| 2026-05-05 20:35 | 49.10271 | -2.49301 | 2353 ft | 198 kts | 83° |
| 2026-05-05 20:35 | 49.10341 | -2.47245 | 2218 ft | 196 kts | 82° |
| 2026-05-05 20:35 | 49.10424 | -2.45141 | 2089 ft | 198 kts | 81° |
| 2026-05-05 20:35 | 49.10516 | -2.43050 | 2002 ft | 197 kts | 81° |
| 2026-05-05 20:36 | 49.10610 | -2.40982 | 1965 ft | 193 kts | 81° |
| 2026-05-05 20:36 | 49.10703 | -2.38984 | 1952 ft | 189 kts | 81° |
| 2026-05-05 20:36 | 49.10798 | -2.36988 | 1941 ft | 184 kts | 81° |
| 2026-05-05 20:36 | 49.10891 | -2.35067 | 1936 ft | 179 kts | 81° |
| 2026-05-05 20:37 | 49.10981 | -2.33209 | 1936 ft | 174 kts | 81° |
| 2026-05-05 20:37 | 49.11070 | -2.31389 | 1935 ft | 169 kts | 81° |
| 2026-05-05 20:37 | 49.11156 | -2.29626 | 1930 ft | 164 kts | 81° |
| 2026-05-05 20:37 | 49.11241 | -2.27906 | 1938 ft | 164 kts | 81° |
| 2026-05-05 20:38 | 49.11327 | -2.26170 | 1939 ft | 165 kts | 81° |
| 2026-05-05 20:38 | 49.11414 | -2.24411 | 1942 ft | 166 kts | 81° |
| 2026-05-05 20:38 | 49.11499 | -2.22674 | 1946 ft | 161 kts | 80° |
| 2026-05-05 20:38 | 49.11578 | -2.20996 | 1974 ft | 158 kts | 81° |
| 2026-05-05 20:39 | 49.11659 | -2.19277 | 1972 ft | 166 kts | 81° |
| 2026-05-05 20:39 | 49.11746 | -2.17474 | 1963 ft | 174 kts | 81° |
| 2026-05-05 20:39 | 49.11833 | -2.15645 | 1952 ft | 174 kts | 81° |
| 2026-05-05 20:39 | 49.11920 | -2.13809 | 1946 ft | 173 kts | 81° |
| 2026-05-05 20:40 | 49.12009 | -2.11977 | 1939 ft | 173 kts | 81° |
| 2026-05-05 20:40 | 49.12097 | -2.10159 | 1947 ft | 172 kts | 81° |
| 2026-05-05 20:40 | 49.12184 | -2.08345 | 1941 ft | 171 kts | 81° |
| 2026-05-05 20:40 | 49.12271 | -2.06530 | 1941 ft | 171 kts | 81° |
| 2026-05-05 20:41 | 49.12356 | -2.04767 | 1937 ft | 165 kts | 81° |
| 2026-05-05 20:41 | 49.12432 | -2.03056 | 1934 ft | 160 kts | 81° |
| 2026-05-05 20:41 | 49.12499 | -2.01378 | 1932 ft | 154 kts | 81° |
| 2026-05-05 20:41 | 49.12553 | -1.99779 | 1928 ft | 147 kts | 81° |
| 2026-05-05 20:42 | 49.12589 | -1.98239 | 1916 ft | 140 kts | 81° |
| 2026-05-05 20:42 | 49.12622 | -1.96817 | 1909 ft | 132 kts | 82° |
| 2026-05-05 20:42 | 49.12650 | -1.95398 | 1939 ft | 137 kts | 82° |
| 2026-05-05 20:42 | 49.12705 | -1.93918 | 1956 ft | 145 kts | 78° |
| 2026-05-05 20:43 | 49.12895 | -1.92363 | 1949 ft | 152 kts | 61° |
| 2026-05-05 20:43 | 49.13713 | -1.91472 | 1956 ft | 153 kts | 8° |
| 2026-05-05 20:43 | 49.14714 | -1.92133 | 1965 ft | 171 kts | 318° |
| 2026-05-05 20:43 | 49.15432 | -1.93670 | 1971 ft | 183 kts | 309° |
| 2026-05-05 20:44 | 49.16163 | -1.95311 | 1971 ft | 192 kts | 309° |
| 2026-05-05 20:44 | 49.16969 | -1.96981 | 1956 ft | 197 kts | 316° |
| 2026-05-05 20:44 | 49.18151 | -1.97937 | 1956 ft | 193 kts | 351° |
| 2026-05-05 20:44 | 49.19486 | -1.98032 | 1960 ft | 195 kts | 0° |
| 2026-05-05 20:45 | 49.22183 | -1.98757 | 1946 ft | 204 kts | 333° |
| 2026-05-05 20:45 | 49.23011 | -2.00480 | 1896 ft | 201 kts | 290° |
| 2026-05-05 20:45 | 49.22860 | -2.02452 | 1994 ft | 175 kts | 254° |
| 2026-05-05 20:46 | 49.22406 | -2.04064 | 1912 ft | 154 kts | 253° |
| 2026-05-05 20:46 | 49.22060 | -2.05467 | 1872 ft | 129 kts | 262° |
| 2026-05-05 20:46 | 49.21868 | -2.06804 | 1869 ft | 131 kts | 270° |
| 2026-05-05 20:46 | 49.21760 | -2.08310 | 1750 ft | 155 kts | 272° |
| 2026-05-05 20:47 | 49.21641 | -2.10064 | 1494 ft | 168 kts | 269° |
| 2026-05-05 20:47 | 49.21471 | -2.11826 | 1190 ft | 160 kts | 265° |
| 2026-05-05 20:47 | 49.21305 | -2.13440 | 949 ft | 146 kts | 268° |
| 2026-05-05 20:47 | 49.21175 | -2.14944 | 797 ft | 139 kts | 269° |
| 2026-05-05 20:48 | 49.21035 | -2.16434 | 696 ft | 142 kts | 267° |
| 2026-05-05 20:48 | 49.20916 | -2.17955 | 410 ft | 145 kts | 269° |
| 2026-05-05 20:48 | 49.20797 | -2.19402 | 276 ft | 120 kts | 268° |
| 2026-05-05 20:48 | 49.20733 | -2.20206 | 269 ft | 50 kts | 264° |
| 2026-05-05 20:49 | 49.20697 | -2.20641 | 252 ft | 12 kts | 239° |
| 2026-05-05 20:49 | 49.20693 | -2.20648 | 252 ft | 0 kts | 228° |
| 2026-05-05 20:49 | 49.20676 | -2.20674 | 250 ft | 9 kts | 215° |
| 2026-05-05 20:49 | 49.20634 | -2.20647 | 251 ft | 7 kts | 102° |
| 2026-05-05 20:50 | 49.20614 | -2.20491 | 260 ft | 9 kts | 105° |
| 2026-05-05 20:50 | 49.20613 | -2.20484 | 260 ft | 0 kts | 104° |
| 2026-05-05 20:50 | 49.20590 | -2.20360 | 265 ft | 23 kts | 105° |
| 2026-05-05 20:51 | 49.20548 | -2.20143 | 270 ft | 16 kts | 106° |
| 2026-05-05 20:51 | 49.20525 | -2.20020 | 270 ft | 9 kts | 105° |
| 2026-05-05 20:51 | 49.20573 | -2.19886 | 270 ft | 15 kts | 25° |
| 2026-05-05 20:51 | 49.20606 | -2.19782 | 271 ft | 13 kts | 113° |
| 2026-05-05 20:52 | 49.20570 | -2.19755 | 271 ft | 11 kts | 171° |
| 2026-05-05 20:52 | 49.20543 | -2.19750 | 271 ft | 0 kts | 174° |